createdAt,value
2022-09-04T00:02:17.932Z,16.00
2022-09-04T00:04:59.244Z,16.10
2022-09-04T00:07:30.596Z,16.10
2022-09-04T00:10:11.280Z,16.00
2022-09-04T00:12:45.842Z,16.10
2022-09-04T00:15:19.422Z,16.10
2022-09-04T00:17:55.292Z,16.00
2022-09-04T00:20:35.377Z,16.00
2022-09-04T00:23:10.129Z,16.00
2022-09-04T00:25:44.455Z,15.90
2022-09-04T00:28:18.173Z,15.90
2022-09-04T00:30:54.700Z,15.80
2022-09-04T00:33:31.150Z,15.80
2022-09-04T00:36:04.140Z,15.80
2022-09-04T00:38:42.479Z,15.80
2022-09-04T00:41:22.144Z,15.80
2022-09-04T00:44:17.031Z,15.80
2022-09-04T00:47:09.416Z,15.70
2022-09-04T00:50:11.052Z,15.80
2022-09-04T00:52:59.368Z,15.90
2022-09-04T00:55:48.037Z,15.70
2022-09-04T00:58:36.850Z,15.60
2022-09-04T01:01:05.465Z,15.50
2022-09-04T01:03:48.398Z,15.40
2022-09-04T01:06:32.493Z,15.50
2022-09-04T01:09:42.344Z,15.70
2022-09-04T01:12:22.933Z,15.60
2022-09-04T01:14:58.439Z,15.40
2022-09-04T01:17:33.597Z,15.30
2022-09-04T01:20:11.078Z,15.30
2022-09-04T01:23:21.477Z,15.30
2022-09-04T01:26:07.686Z,15.30
2022-09-04T01:28:45.202Z,15.40
2022-09-04T01:31:25.516Z,15.30
2022-09-04T01:34:06.233Z,15.30
2022-09-04T01:36:42.705Z,15.40
2022-09-04T01:39:10.704Z,15.60
2022-09-04T01:41:46.564Z,15.60
2022-09-04T01:44:14.899Z,15.40
2022-09-04T01:46:51.543Z,15.40
2022-09-04T01:49:32.149Z,15.30
2022-09-04T01:52:10.866Z,15.20
2022-09-04T01:54:49.253Z,15.30
2022-09-04T01:57:32.921Z,15.40
2022-09-04T02:00:07.974Z,15.60
2022-09-04T02:02:48.850Z,15.40
2022-09-04T02:05:27.567Z,15.30
2022-09-04T02:08:06.228Z,15.30
2022-09-04T02:10:42.114Z,15.20
2022-09-04T02:13:17.639Z,15.40
2022-09-04T02:15:55.980Z,15.40
2022-09-04T02:18:36.062Z,15.40
2022-09-04T02:21:08.636Z,15.40
2022-09-04T02:23:42.785Z,15.20
2022-09-04T02:26:16.889Z,15.20
2022-09-04T02:28:56.988Z,15.10
2022-09-04T02:31:33.987Z,15.10
2022-09-04T02:34:09.388Z,15.00
2022-09-04T02:36:44.016Z,14.90
2022-09-04T02:39:27.571Z,15.00
2022-09-04T02:42:05.119Z,15.10
2022-09-04T02:44:46.071Z,15.30
2022-09-04T02:47:23.744Z,15.10
2022-09-04T02:50:02.761Z,15.10
2022-09-04T02:52:43.151Z,15.00
2022-09-04T02:55:25.011Z,15.10
2022-09-04T02:58:01.729Z,15.10
2022-09-04T03:00:41.439Z,15.20
2022-09-04T03:03:15.311Z,15.20
2022-09-04T03:05:49.013Z,15.20
2022-09-04T03:08:21.185Z,15.30
2022-09-04T03:10:56.297Z,15.20
2022-09-04T03:13:31.232Z,15.20
2022-09-04T03:16:09.234Z,15.20
2022-09-04T03:18:54.639Z,15.30
2022-09-04T03:21:30.143Z,15.30
2022-09-04T03:24:06.650Z,15.30
2022-09-04T03:26:38.019Z,15.20
2022-09-04T03:29:14.293Z,15.20
2022-09-04T03:31:49.686Z,15.20
2022-09-04T03:34:32.137Z,15.20
2022-09-04T03:37:13.826Z,15.20
2022-09-04T03:39:53.181Z,15.20
2022-09-04T03:42:31.384Z,15.10
2022-09-04T03:45:13.426Z,15.00
2022-09-04T03:47:50.592Z,14.90
2022-09-04T03:50:29.434Z,14.90
2022-09-04T03:53:07.400Z,14.90
2022-09-04T03:56:01.489Z,14.90
2022-09-04T03:58:38.117Z,15.00
2022-09-04T04:01:13.724Z,14.90
2022-09-04T04:03:58.713Z,14.90
2022-09-04T04:06:35.319Z,14.80
2022-09-04T04:09:31.556Z,14.90
2022-09-04T04:12:13.720Z,15.10
2022-09-04T04:14:57.052Z,14.90
2022-09-04T04:17:48.185Z,14.90
2022-09-04T04:20:26.879Z,14.90
2022-09-04T04:23:17.832Z,14.80
2022-09-04T04:26:00.706Z,14.70
2022-09-04T04:28:59.653Z,14.80
2022-09-04T04:31:39.355Z,14.60
2022-09-04T04:34:16.915Z,14.50
2022-09-04T04:36:53.506Z,14.50
2022-09-04T04:39:30.380Z,14.60
2022-09-04T04:42:13.547Z,14.70
2022-09-04T04:45:22.535Z,14.90
2022-09-04T04:48:20.788Z,15.00
2022-09-04T04:51:00.743Z,14.90
2022-09-04T04:53:36.562Z,14.90
2022-09-04T04:56:15.332Z,15.00
2022-09-04T04:58:59.277Z,14.90
2022-09-04T05:01:36.877Z,14.80
2022-09-04T05:04:15.155Z,14.80
2022-09-04T05:06:50.395Z,14.80
2022-09-04T05:09:26.751Z,14.80
2022-09-04T05:12:00.287Z,14.80
2022-09-04T05:14:40.835Z,14.80
2022-09-04T05:17:21.024Z,14.70
2022-09-04T05:19:53.747Z,14.70
2022-09-04T05:22:26.675Z,14.60
2022-09-04T05:25:08.944Z,14.60
2022-09-04T05:27:52.528Z,14.70
2022-09-04T05:30:29.279Z,14.70
2022-09-04T05:33:05.250Z,14.70
2022-09-04T05:35:43.423Z,14.80
2022-09-04T05:38:17.094Z,14.80
2022-09-04T05:41:07.512Z,15.00
2022-09-04T05:43:51.926Z,15.10
2022-09-04T05:46:31.754Z,15.20
2022-09-04T05:49:04.025Z,15.10
2022-09-04T05:52:14.340Z,15.00
2022-09-04T05:55:24.144Z,14.90
2022-09-04T05:58:10.869Z,14.90
2022-09-04T06:00:48.304Z,14.90
2022-09-04T06:03:38.536Z,14.90
2022-09-04T06:06:13.474Z,15.10
2022-09-04T06:09:08.603Z,15.10
2022-09-04T06:12:02.901Z,15.10
2022-09-04T06:14:44.890Z,15.20
2022-09-04T06:17:27.233Z,15.20
2022-09-04T06:20:17.207Z,15.20
2022-09-04T06:23:21.976Z,15.30
2022-09-04T06:26:13.217Z,15.40
2022-09-04T06:29:04.898Z,15.50
2022-09-04T06:32:20.314Z,15.60
2022-09-04T06:35:09.183Z,15.70
2022-09-04T06:37:44.493Z,15.80
2022-09-04T06:40:28.661Z,15.90
2022-09-04T06:43:09.297Z,16.00
2022-09-04T06:45:49.347Z,16.10
2022-09-04T06:48:28.965Z,16.20
2022-09-04T06:51:09.336Z,16.30
2022-09-04T06:53:43.672Z,16.50
2022-09-04T06:56:28.721Z,16.60
2022-09-04T06:59:23.640Z,16.60
2022-09-04T07:02:02.964Z,16.70
2022-09-04T07:04:44.747Z,16.80
2022-09-04T07:07:22.779Z,16.90
2022-09-04T07:09:59.876Z,16.90
2022-09-04T07:12:54.296Z,17.00
2022-09-04T07:15:39.959Z,17.10
2022-09-04T07:18:20.267Z,17.20
2022-09-04T07:20:59.519Z,17.30
2022-09-04T07:23:35.947Z,17.40
2022-09-04T07:26:17.259Z,17.50
2022-09-04T07:29:25.997Z,17.50
2022-09-04T07:32:01.915Z,17.60
2022-09-04T07:34:38.777Z,17.70
2022-09-04T07:37:23.332Z,17.80
2022-09-04T07:39:58.806Z,17.90
2022-09-04T07:42:32.701Z,18.10
2022-09-04T07:45:05.968Z,18.30
2022-09-04T07:47:40.479Z,19.00
2022-09-04T07:50:13.876Z,19.80
2022-09-04T07:53:04.828Z,20.70
2022-09-04T07:55:41.030Z,22.00
2022-09-04T07:58:37.167Z,23.00
2022-09-04T08:01:26.821Z,24.00
2022-09-04T08:04:15.059Z,24.80
2022-09-04T08:06:47.171Z,25.10
2022-09-04T08:09:40.957Z,25.10
2022-09-04T08:12:31.817Z,25.80
2022-09-04T08:15:10.591Z,26.10
2022-09-04T08:17:56.817Z,26.40
2022-09-04T08:20:39.757Z,26.60
2022-09-04T08:23:24.573Z,26.80
2022-09-04T08:26:02.923Z,26.90
2022-09-04T08:28:46.863Z,27.30
2022-09-04T08:31:22.243Z,27.60
2022-09-04T08:34:10.194Z,27.40
2022-09-04T08:36:46.280Z,27.30
2022-09-04T08:39:22.501Z,27.40
2022-09-04T08:42:29.990Z,27.60
2022-09-04T08:45:28.128Z,27.80
2022-09-04T08:48:39.446Z,28.00
2022-09-04T08:51:34.185Z,28.10
2022-09-04T08:54:34.542Z,28.00
2022-09-04T08:57:45.121Z,28.30
2022-09-04T09:00:16.104Z,28.30
2022-09-04T09:03:35.064Z,28.40
2022-09-04T09:06:49.955Z,28.40
2022-09-04T09:09:51.542Z,28.40
2022-09-04T09:12:42.156Z,28.60
2022-09-04T09:15:34.137Z,28.90
2022-09-04T09:18:04.008Z,29.00
2022-09-04T09:20:46.172Z,29.00
2022-09-04T09:23:20.600Z,28.90
2022-09-04T09:26:06.223Z,28.80
2022-09-04T09:29:13.521Z,29.10
2022-09-04T09:32:21.807Z,29.20
2022-09-04T09:35:16.697Z,29.40
2022-09-04T09:38:14.753Z,28.90
2022-09-04T09:41:05.225Z,29.10
2022-09-04T09:44:01.846Z,29.20
2022-09-04T09:46:50.706Z,29.30
2022-09-04T09:50:06.061Z,29.40
2022-09-04T09:52:58.749Z,29.70
2022-09-04T09:56:18.309Z,29.70
2022-09-04T09:59:05.899Z,29.70
2022-09-04T10:01:46.716Z,30.10
2022-09-04T10:04:28.638Z,30.10
2022-09-04T10:07:38.924Z,30.20
2022-09-04T10:10:34.497Z,30.60
2022-09-04T10:13:20.230Z,30.70
2022-09-04T10:16:03.148Z,30.40
2022-09-04T10:19:00.224Z,30.60
2022-09-04T10:22:00.681Z,30.50
2022-09-04T10:24:50.040Z,30.50
2022-09-04T10:27:43.986Z,30.30
2022-09-04T10:30:16.050Z,30.20
2022-09-04T10:33:11.889Z,30.40
2022-09-04T10:36:00.785Z,30.60
2022-09-04T10:38:59.700Z,30.80
2022-09-04T10:41:50.908Z,30.70
2022-09-04T10:44:57.264Z,30.80
2022-09-04T10:47:44.966Z,30.90
2022-09-04T10:50:27.285Z,31.00
2022-09-04T10:53:21.418Z,30.90
2022-09-04T10:56:05.888Z,31.00
2022-09-04T10:58:47.127Z,30.80
2022-09-04T11:01:48.258Z,30.90
2022-09-04T11:04:38.425Z,30.70
2022-09-04T11:07:31.221Z,30.50
2022-09-04T11:10:28.911Z,30.90
2022-09-04T11:13:40.503Z,30.80
2022-09-04T11:16:41.147Z,30.80
2022-09-04T11:19:44.300Z,30.70
2022-09-04T11:22:44.259Z,30.80
2022-09-04T11:25:42.700Z,31.10
2022-09-04T11:28:41.079Z,31.10
2022-09-04T11:31:31.340Z,31.00
2022-09-04T11:34:44.276Z,31.00
2022-09-04T11:37:44.256Z,30.80
2022-09-04T11:40:33.249Z,30.90
2022-09-04T11:43:23.554Z,30.70
2022-09-04T11:46:16.116Z,30.70
2022-09-04T11:49:09.257Z,30.70
2022-09-04T11:52:16.004Z,30.80
2022-09-04T11:55:22.316Z,30.60
2022-09-04T11:58:05.360Z,30.20
2022-09-04T12:00:43.907Z,30.10
2022-09-04T12:03:52.566Z,30.00
2022-09-04T12:06:39.964Z,29.80
2022-09-04T12:09:39.692Z,29.70
2022-09-04T12:12:49.902Z,29.70
2022-09-04T12:16:04.518Z,29.50
2022-09-04T12:19:09.393Z,29.40
2022-09-04T12:22:00.533Z,29.20
2022-09-04T12:25:08.171Z,29.10
2022-09-04T12:28:15.774Z,28.90
2022-09-04T12:31:02.851Z,29.00
2022-09-04T12:34:01.254Z,29.10
2022-09-04T12:37:02.028Z,28.90
2022-09-04T12:39:50.290Z,28.70
2022-09-04T12:42:23.747Z,28.60
2022-09-04T12:45:03.355Z,28.40
2022-09-04T12:47:47.616Z,28.30
2022-09-04T12:50:30.900Z,28.30
2022-09-04T12:53:19.168Z,28.20
2022-09-04T12:55:53.686Z,28.00
2022-09-04T12:58:31.208Z,28.00
2022-09-04T13:01:13.731Z,27.90
2022-09-04T13:03:50.155Z,27.90
2022-09-04T13:06:27.413Z,27.80
2022-09-04T13:09:07.662Z,27.80
2022-09-04T13:11:49.611Z,27.70
2022-09-04T13:14:37.828Z,27.60
2022-09-04T13:17:17.835Z,27.60
2022-09-04T13:19:54.950Z,27.50
2022-09-04T13:22:34.410Z,27.60
2022-09-04T13:25:13.141Z,27.50
2022-09-04T13:27:53.601Z,27.60
2022-09-04T13:30:24.456Z,27.60
2022-09-04T13:33:11.239Z,27.40
2022-09-04T13:36:00.989Z,27.30
2022-09-04T13:38:54.206Z,27.30
2022-09-04T13:42:04.286Z,27.30
2022-09-04T13:44:54.979Z,27.20
2022-09-04T13:47:29.709Z,27.20
2022-09-04T13:50:08.490Z,27.20
2022-09-04T13:52:43.600Z,27.10
2022-09-04T13:55:17.936Z,27.00
2022-09-04T13:57:57.437Z,26.90
2022-09-04T14:00:25.891Z,26.90
2022-09-04T14:03:00.075Z,26.90
2022-09-04T14:05:29.772Z,26.80
2022-09-04T14:08:03.889Z,26.80
2022-09-04T14:10:56.812Z,26.80
2022-09-04T14:13:42.071Z,26.70
2022-09-04T14:16:11.538Z,26.70
2022-09-04T14:19:15.005Z,26.70
2022-09-04T14:22:04.591Z,26.60
2022-09-04T14:24:42.029Z,26.70
2022-09-04T14:27:18.460Z,26.70
2022-09-04T14:29:57.599Z,26.60
2022-09-04T14:32:32.251Z,26.60
2022-09-04T14:35:10.396Z,26.60
2022-09-04T14:38:07.325Z,26.60
2022-09-04T14:40:40.002Z,26.50
2022-09-04T14:43:22.301Z,26.50
2022-09-04T14:46:02.587Z,26.50
2022-09-04T14:48:33.590Z,26.50
2022-09-04T14:51:17.283Z,26.50
2022-09-04T14:53:49.881Z,26.50
2022-09-04T14:56:32.513Z,26.50
2022-09-04T14:59:09.210Z,26.40
2022-09-04T15:01:40.566Z,26.50
2022-09-04T15:04:15.248Z,26.40
2022-09-04T15:07:07.780Z,26.40
2022-09-04T15:09:38.500Z,26.30
2022-09-04T15:12:24.757Z,26.30
2022-09-04T15:14:58.419Z,26.40
2022-09-04T15:17:29.310Z,26.30
2022-09-04T15:20:01.834Z,26.30
2022-09-04T15:22:37.778Z,26.20
2022-09-04T15:25:08.976Z,26.30
2022-09-04T15:27:46.721Z,26.20
2022-09-04T15:30:21.024Z,26.20
2022-09-04T15:32:50.449Z,26.20
2022-09-04T15:35:24.256Z,26.20
2022-09-04T15:38:05.774Z,26.10
2022-09-04T15:40:36.911Z,26.10
2022-09-04T15:43:21.139Z,26.10
2022-09-04T15:45:59.671Z,26.00
2022-09-04T15:48:43.823Z,26.00
2022-09-04T15:51:19.904Z,26.00
2022-09-04T15:53:54.706Z,26.00
2022-09-04T15:56:34.805Z,26.00
2022-09-04T15:59:12.106Z,26.00
2022-09-04T16:01:49.683Z,25.90
2022-09-04T16:04:26.353Z,25.90
2022-09-04T16:06:58.820Z,25.90
2022-09-04T16:09:34.144Z,25.80
2022-09-04T16:12:11.473Z,25.70
2022-09-04T16:14:46.205Z,25.70
2022-09-04T16:17:20.092Z,25.70
2022-09-04T16:19:53.730Z,25.70
2022-09-04T16:22:34.973Z,25.70
2022-09-04T16:25:10.969Z,25.60
2022-09-04T16:27:46.364Z,25.50
2022-09-04T16:30:35.453Z,25.50
2022-09-04T16:33:12.864Z,25.40
2022-09-04T16:35:50.601Z,25.40
2022-09-04T16:38:24.216Z,25.40
2022-09-04T16:40:56.738Z,25.30
2022-09-04T16:43:28.694Z,25.30
2022-09-04T16:46:08.889Z,25.20
2022-09-04T16:48:44.157Z,25.10
2022-09-04T16:51:39.738Z,25.10
2022-09-04T16:54:17.920Z,25.10
2022-09-04T16:56:50.153Z,24.90
2022-09-04T16:59:30.002Z,24.90
2022-09-04T17:02:02.518Z,24.70
2022-09-04T17:04:40.188Z,24.70
2022-09-04T17:07:15.948Z,24.50
2022-09-04T17:09:58.651Z,24.40
2022-09-04T17:12:38.922Z,24.30
2022-09-04T17:15:17.350Z,24.30
2022-09-04T17:17:47.288Z,24.10
2022-09-04T17:20:26.507Z,24.10
2022-09-04T17:29:04.238Z,23.90
2022-09-04T17:29:14.606Z,23.80
2022-09-04T17:29:34.687Z,23.70
2022-09-04T17:31:58.043Z,23.60
2022-09-04T17:40:32.261Z,23.60
2022-09-04T17:40:43.589Z,23.60
2022-09-04T17:41:34.558Z,23.50
2022-09-04T17:43:42.741Z,23.40
2022-09-04T17:46:24.548Z,23.40
2022-09-04T17:48:53.442Z,23.30
2022-09-04T17:51:26.685Z,23.40
2022-09-04T17:53:58.109Z,23.40
2022-09-04T17:56:31.609Z,23.40
2022-09-04T17:59:05.281Z,23.40
2022-09-04T18:01:40.726Z,23.20
2022-09-04T18:04:22.616Z,23.10
2022-09-04T18:07:00.230Z,23.20
2022-09-04T18:09:36.798Z,23.10
2022-09-04T18:12:13.692Z,22.80
2022-09-04T18:14:50.130Z,22.80
2022-09-04T18:17:36.109Z,22.70
2022-09-04T18:20:13.901Z,22.50
2022-09-04T18:23:26.302Z,22.40
2022-09-04T18:26:00.542Z,22.50
2022-09-04T18:28:33.833Z,22.50
2022-09-04T18:37:07.302Z,22.30
2022-09-04T18:37:24.432Z,22.20
2022-09-04T18:37:40.119Z,22.20
2022-09-04T18:40:05.352Z,22.10
2022-09-04T18:50:20.701Z,21.90
2022-09-04T18:50:35.291Z,21.90
2022-09-04T18:50:47.147Z,21.70
2022-09-04T18:51:25.109Z,21.60
2022-09-04T18:53:57.620Z,21.50
2022-09-04T18:56:29.602Z,21.50
2022-09-04T18:59:08.397Z,21.50
2022-09-04T19:01:42.147Z,21.40
2022-09-04T19:04:35.180Z,21.40
2022-09-04T19:07:08.231Z,21.40
2022-09-04T19:09:56.419Z,21.40
2022-09-04T19:12:35.914Z,21.30
2022-09-04T19:15:36.952Z,21.40
2022-09-04T19:18:14.473Z,21.40
2022-09-04T19:20:48.824Z,21.30
2022-09-04T19:23:25.377Z,21.30
2022-09-04T19:25:55.571Z,21.20
2022-09-04T19:28:29.533Z,21.20
2022-09-04T19:31:02.770Z,21.20
2022-09-04T19:33:39.591Z,21.20
2022-09-04T19:36:12.738Z,21.00
2022-09-04T19:45:52.055Z,21.10
2022-09-04T19:46:04.665Z,20.90
2022-09-04T19:46:11.717Z,20.80
2022-09-04T19:47:29.413Z,20.70
2022-09-04T19:53:21.839Z,20.70
2022-09-04T19:53:31.540Z,20.60
2022-09-04T19:55:55.747Z,20.60
2022-09-04T19:58:29.326Z,20.40
2022-09-04T20:00:59.258Z,20.30
2022-09-04T20:03:34.086Z,20.10
2022-09-04T20:06:19.815Z,20.00
2022-09-04T20:08:53.923Z,20.10
2022-09-04T20:11:34.830Z,20.00
2022-09-04T20:14:14.392Z,19.90
2022-09-04T20:16:50.940Z,19.80
2022-09-04T20:19:27.759Z,19.70
2022-09-04T20:22:00.958Z,19.70
2022-09-04T20:24:39.599Z,19.70
2022-09-04T20:27:15.581Z,19.70
2022-09-04T20:29:54.481Z,19.70
2022-09-04T20:32:26.577Z,19.60
2022-09-04T20:35:13.708Z,19.60
2022-09-04T20:37:45.620Z,19.50
2022-09-04T20:40:27.052Z,19.50
2022-09-04T20:43:11.229Z,19.30
2022-09-04T20:51:13.787Z,19.20
2022-09-04T20:52:53.684Z,19.20
2022-09-04T20:52:54.738Z,19.10
2022-09-04T20:54:50.890Z,19.10
2022-09-04T21:00:16.837Z,18.90
2022-09-04T21:03:22.835Z,18.80
2022-09-04T21:03:27.899Z,18.70
2022-09-04T21:06:11.567Z,18.70
2022-09-04T21:08:48.441Z,18.90
2022-09-04T21:11:39.197Z,18.90
2022-09-04T21:14:15.530Z,18.90
2022-09-04T21:17:02.773Z,19.00
2022-09-04T21:20:17.583Z,19.00
2022-09-04T21:22:59.165Z,19.00
2022-09-04T21:25:42.001Z,19.00
2022-09-04T21:28:30.817Z,18.90
2022-09-04T21:31:16.368Z,19.00
2022-09-04T21:34:02.871Z,18.80
2022-09-04T21:36:38.041Z,18.80
2022-09-04T21:39:38.210Z,18.60
2022-09-04T21:42:22.781Z,18.70
2022-09-04T21:45:23.147Z,18.60
2022-09-04T21:48:18.071Z,18.50
2022-09-04T21:51:04.904Z,18.50
2022-09-04T21:54:23.328Z,18.30
2022-09-04T22:02:28.727Z,18.30
2022-09-04T22:02:45.674Z,18.30
2022-09-04T22:03:35.990Z,18.20
2022-09-04T22:06:14.236Z,18.20
2022-09-04T22:13:29.533Z,18.30
2022-09-04T22:13:31.196Z,18.30
2022-09-04T22:14:55.751Z,18.30
2022-09-04T22:17:55.052Z,18.40
2022-09-04T22:20:44.394Z,18.30
2022-09-04T22:23:42.268Z,18.30
2022-09-04T22:26:40.784Z,18.20
2022-09-04T22:29:25.637Z,18.20
2022-09-04T22:32:44.345Z,18.10
2022-09-04T22:35:37.207Z,18.10
2022-09-04T22:38:32.668Z,18.00
2022-09-04T22:41:19.285Z,18.00
2022-09-04T22:43:58.577Z,18.00
2022-09-04T22:46:47.900Z,18.10
2022-09-04T22:49:32.476Z,18.20
2022-09-04T22:52:26.028Z,18.10
2022-09-04T22:55:22.991Z,18.00
2022-09-04T22:58:09.821Z,18.00
2022-09-04T23:01:02.475Z,18.00
2022-09-04T23:03:44.982Z,18.00
2022-09-04T23:11:46.683Z,18.10
2022-09-04T23:13:47.724Z,18.10
2022-09-04T23:14:00.284Z,17.80
2022-09-04T23:16:24.917Z,17.70
2022-09-04T23:26:32.772Z,17.40
2022-09-04T23:26:36.126Z,17.50
2022-09-04T23:26:39.477Z,17.30
2022-09-04T23:28:27.837Z,17.50
2022-09-04T23:31:12.453Z,17.60
2022-09-04T23:34:01.544Z,17.70
2022-09-04T23:36:58.132Z,17.70
2022-09-04T23:40:03.495Z,17.70
2022-09-04T23:42:54.560Z,17.70
2022-09-04T23:45:55.240Z,17.60
2022-09-04T23:48:48.016Z,17.50
2022-09-04T23:51:27.851Z,17.40
2022-09-04T23:54:46.330Z,17.40
2022-09-04T23:57:26.219Z,17.40
